createdAt,value
2019-05-10T00:03:06.216Z,6.77
2019-05-10T00:08:22.056Z,6.77
2019-05-10T00:13:26.849Z,6.43
2019-05-10T00:18:23.884Z,5.80
2019-05-10T00:23:22.729Z,6.13
2019-05-10T00:28:19.798Z,5.00
2019-05-10T00:33:16.871Z,6.10
2019-05-10T00:38:13.833Z,7.17
2019-05-10T00:43:10.801Z,6.63
2019-05-10T00:48:07.735Z,6.90
2019-05-10T00:53:05.085Z,7.73
2019-05-10T00:58:02.017Z,7.03
2019-05-10T01:02:59.020Z,6.73
2019-05-10T01:07:56.049Z,8.60
2019-05-10T01:12:53.045Z,8.13
2019-05-10T01:17:50.111Z,6.90
2019-05-10T01:22:47.064Z,6.27
2019-05-10T01:27:44.120Z,9.20
2019-05-10T01:32:41.645Z,6.77
2019-05-10T01:37:38.679Z,6.73
2019-05-10T01:42:35.639Z,5.43
2019-05-10T01:47:32.585Z,5.73
2019-05-10T01:52:29.686Z,5.80
2019-05-10T01:57:26.649Z,5.30
2019-05-10T02:02:23.721Z,6.73
2019-05-10T02:07:20.674Z,5.80
2019-05-10T02:12:19.832Z,6.53
2019-05-10T02:17:16.787Z,6.23
2019-05-10T02:22:15.906Z,6.43
2019-05-10T02:27:12.988Z,6.10
2019-05-10T02:32:10.512Z,5.30
2019-05-10T02:37:07.473Z,5.07
2019-05-10T02:42:04.678Z,4.70
2019-05-10T02:47:01.717Z,5.70
2019-05-10T02:51:58.803Z,6.17
2019-05-10T02:56:56.260Z,6.70
2019-05-10T03:01:55.747Z,5.33
2019-05-10T03:07:00.662Z,5.13
2019-05-10T03:12:12.342Z,4.77
2019-05-10T03:17:12.591Z,4.27
2019-05-10T03:22:09.638Z,5.73
2019-05-10T03:27:06.767Z,5.17
2019-05-10T03:32:03.858Z,4.80
2019-05-10T03:37:00.955Z,7.50
2019-05-10T03:41:58.008Z,4.37
2019-05-10T03:46:55.043Z,4.77
2019-05-10T03:51:54.043Z,4.07
2019-05-10T03:57:09.241Z,5.90
2019-05-10T04:01:50.034Z,4.77
2019-05-10T04:06:47.157Z,3.93
2019-05-10T04:11:46.079Z,3.93
2019-05-10T04:16:44.423Z,3.57
2019-05-10T04:21:41.644Z,6.07
2019-05-10T04:26:38.739Z,3.73
2019-05-10T04:31:36.299Z,5.33
2019-05-10T04:36:35.148Z,5.43
2019-05-10T04:41:32.164Z,4.90
2019-05-10T04:46:31.134Z,5.23
2019-05-10T04:51:28.174Z,4.07
2019-05-10T04:56:25.209Z,4.57
2019-05-10T05:01:22.299Z,4.97
2019-05-10T05:06:21.313Z,3.40
2019-05-10T05:11:19.924Z,5.07
2019-05-10T05:16:16.991Z,4.60
2019-05-10T05:21:13.949Z,3.77
2019-05-10T05:26:10.945Z,3.10
2019-05-10T05:31:07.937Z,3.57
2019-05-10T05:36:05.939Z,3.23
2019-05-10T05:41:02.980Z,3.50
2019-05-10T05:46:14.004Z,3.13
2019-05-10T05:51:09.543Z,3.40
2019-05-10T05:56:12.680Z,3.17
2019-05-10T06:01:05.931Z,3.53
2019-05-10T06:06:15.262Z,3.50
2019-05-10T06:11:04.688Z,3.10
2019-05-10T06:16:06.250Z,5.17
2019-05-10T06:21:00.758Z,3.40
2019-05-10T06:26:00.673Z,3.17
2019-05-10T06:31:04.982Z,3.80
2019-05-10T06:36:02.095Z,2.63
2019-05-10T06:41:01.322Z,2.07
2019-05-10T06:45:58.496Z,2.47
2019-05-10T06:50:55.514Z,2.30
2019-05-10T06:55:56.171Z,2.23
2019-05-10T07:00:53.138Z,2.83
2019-05-10T07:05:53.927Z,2.50
2019-05-10T07:10:52.774Z,1.90
2019-05-10T07:15:58.259Z,2.83
2019-05-10T07:20:55.307Z,1.87
2019-05-10T07:25:54.208Z,2.47
2019-05-10T07:30:51.289Z,1.53
2019-05-10T07:35:48.736Z,2.30
2019-05-10T07:40:47.728Z,2.83
2019-05-10T07:45:46.917Z,1.67
2019-05-10T07:50:49.617Z,1.70
2019-05-10T07:55:43.027Z,1.53
2019-05-10T08:00:48.096Z,4.87
2019-05-10T08:05:46.171Z,2.30
2019-05-10T08:10:45.648Z,3.57
2019-05-10T08:15:44.085Z,1.60
2019-05-10T08:20:53.929Z,2.07
2019-05-10T08:25:47.360Z,1.93
2019-05-10T08:30:51.854Z,2.07
2019-05-10T08:35:52.461Z,1.57
2019-05-10T08:40:48.654Z,5.07
2019-05-10T08:45:49.426Z,1.70
2019-05-10T08:50:57.581Z,2.73
2019-05-10T08:55:58.341Z,3.00
2019-05-10T09:01:16.448Z,2.43
2019-05-10T09:06:10.777Z,1.63
2019-05-10T09:11:06.439Z,1.80
2019-05-10T09:16:03.240Z,1.90
2019-05-10T09:21:10.572Z,3.93
2019-05-10T09:26:10.179Z,3.60
2019-05-10T09:31:18.608Z,3.23
2019-05-10T09:36:09.517Z,1.83
2019-05-10T09:41:09.204Z,2.53
2019-05-10T09:46:14.870Z,1.40
2019-05-10T09:51:13.761Z,1.80
2019-05-10T09:56:17.322Z,3.17
2019-05-10T10:01:20.704Z,2.33
2019-05-10T10:06:18.042Z,2.53
2019-05-10T10:11:18.720Z,2.57
2019-05-10T10:16:20.710Z,1.67
2019-05-10T10:21:30.513Z,2.40
2019-05-10T10:26:22.322Z,2.60
2019-05-10T10:31:29.564Z,2.63
2019-05-10T10:36:20.731Z,2.17
2019-05-10T10:41:25.906Z,2.40
2019-05-10T10:46:19.745Z,2.60
2019-05-10T10:51:18.027Z,2.63
2019-05-10T10:56:19.019Z,1.97
2019-05-10T11:01:21.379Z,5.60
2019-05-10T11:06:15.516Z,2.67
2019-05-10T11:11:12.657Z,3.00
2019-05-10T11:16:15.469Z,2.17
2019-05-10T11:21:08.602Z,2.17
2019-05-10T11:26:10.872Z,2.60
2019-05-10T11:31:11.391Z,1.43
2019-05-10T11:36:10.950Z,1.50
2019-05-10T11:41:13.639Z,1.53
2019-05-10T11:46:11.722Z,4.00
2019-05-10T11:51:15.886Z,2.60
2019-05-10T11:56:26.799Z,3.70
2019-05-10T12:01:22.252Z,2.40
2019-05-10T12:06:22.646Z,1.80
2019-05-10T12:16:21.305Z,1.73
2019-05-10T12:21:17.475Z,2.50
2019-05-10T12:26:49.398Z,3.77
2019-05-10T12:27:12.667Z,2.47
2019-05-10T12:31:17.022Z,2.30
2019-05-10T12:36:25.495Z,2.73
2019-05-10T12:41:16.541Z,2.73
2019-05-10T12:46:13.682Z,1.63
2019-05-10T12:51:15.197Z,3.23
2019-05-10T12:56:10.084Z,1.37
2019-05-10T13:01:08.803Z,1.20
2019-05-10T13:06:10.360Z,1.73
2019-05-10T13:11:07.538Z,1.87
2019-05-10T13:16:09.497Z,2.67
2019-05-10T13:21:13.582Z,2.33
2019-05-10T13:26:12.361Z,2.60
2019-05-10T13:31:15.227Z,1.43
2019-05-10T13:36:12.293Z,2.00
2019-05-10T13:41:17.987Z,1.50
2019-05-10T13:46:17.672Z,1.43
2019-05-10T13:51:16.118Z,1.53
2019-05-10T13:56:15.130Z,1.30
2019-05-10T14:01:14.849Z,2.73
2019-05-10T14:06:12.135Z,1.73
2019-05-10T14:11:09.233Z,1.73
2019-05-10T14:16:06.469Z,1.10
2019-05-10T14:21:03.535Z,2.00
2019-05-10T14:26:00.605Z,2.00
2019-05-10T14:30:58.929Z,3.50
2019-05-10T14:36:00.870Z,1.50
2019-05-10T14:40:55.415Z,3.40
2019-05-10T14:45:52.412Z,3.33
2019-05-10T14:50:49.414Z,1.37
2019-05-10T14:55:49.347Z,2.67
2019-05-10T15:00:48.276Z,3.17
2019-05-10T15:05:48.953Z,1.90
2019-05-10T15:10:45.112Z,2.57
2019-05-10T15:15:42.828Z,2.77
2019-05-10T15:20:41.741Z,2.20
2019-05-10T15:25:55.702Z,1.93
2019-05-10T15:30:45.764Z,2.43
2019-05-10T15:35:45.832Z,2.07
2019-05-10T15:40:44.561Z,1.50
2019-05-10T15:45:39.066Z,1.57
2019-05-10T15:50:38.683Z,2.10
2019-05-10T15:55:35.105Z,2.20
2019-05-10T16:00:39.368Z,1.60
2019-05-10T16:05:43.101Z,1.70
2019-05-10T16:10:38.812Z,5.23
2019-05-10T16:15:32.924Z,2.77
2019-05-10T16:20:31.779Z,5.03
2019-05-10T16:25:32.839Z,3.00
2019-05-10T16:30:28.011Z,3.70
2019-05-10T16:35:38.079Z,4.77
2019-05-10T16:40:24.089Z,5.07
2019-05-10T16:45:23.146Z,2.97
2019-05-10T16:50:25.857Z,14.47
2019-05-10T16:55:21.383Z,2.60
2019-05-10T17:00:18.641Z,3.83
2019-05-10T17:05:17.297Z,6.87
2019-05-10T17:10:14.615Z,4.50
2019-05-10T17:15:14.062Z,5.13
2019-05-10T17:20:15.775Z,4.03
2019-05-10T17:25:13.595Z,5.80
2019-05-10T17:30:14.678Z,5.97
2019-05-10T17:35:12.120Z,5.97
2019-05-10T17:40:12.085Z,8.93
2019-05-10T17:45:08.993Z,5.00
2019-05-10T17:50:06.971Z,5.40
2019-05-10T17:55:10.790Z,9.20
2019-05-10T18:00:06.871Z,7.10
2019-05-10T18:05:08.317Z,9.77
2019-05-10T18:10:06.624Z,6.30
2019-05-10T18:15:06.374Z,4.40
2019-05-10T18:20:05.418Z,11.90
2019-05-10T18:25:02.919Z,8.63
2019-05-10T18:30:00.134Z,18.10
2019-05-10T18:34:57.279Z,17.33
2019-05-10T18:39:54.773Z,13.30
2019-05-10T18:44:54.121Z,11.37
2019-05-10T18:49:51.272Z,15.87
2019-05-10T18:54:48.331Z,18.23
2019-05-10T18:59:47.092Z,20.80
2019-05-10T19:04:45.764Z,14.33
2019-05-10T19:09:43.522Z,30.60
2019-05-10T19:14:40.623Z,88.47
2019-05-10T19:19:42.140Z,41.03
2019-05-10T19:24:39.885Z,37.97
2019-05-10T19:29:38.843Z,35.73
2019-05-10T19:34:38.530Z,42.57
2019-05-10T19:39:37.239Z,33.87
2019-05-10T19:44:39.746Z,37.73
2019-05-10T19:49:33.925Z,34.33
2019-05-10T19:54:31.139Z,31.93
2019-05-10T19:59:28.506Z,38.13
2019-05-10T20:04:25.624Z,33.70
2019-05-10T20:09:23.247Z,37.30
2019-05-10T20:14:20.368Z,52.23
2019-05-10T20:19:17.439Z,47.50
2019-05-10T20:24:14.424Z,40.83
2019-05-10T20:29:13.543Z,29.07
2019-05-10T20:34:10.923Z,27.13
2019-05-10T20:39:08.009Z,29.20
2019-05-10T20:44:04.999Z,25.00
2019-05-10T20:49:02.605Z,13.30
2019-05-10T20:54:00.741Z,15.73
2019-05-10T20:58:57.863Z,13.03
2019-05-10T21:03:55.911Z,11.33
2019-05-10T21:08:54.914Z,9.77
2019-05-10T21:13:52.111Z,9.37
2019-05-10T21:18:51.506Z,10.70
2019-05-10T21:23:48.810Z,8.93
2019-05-10T21:28:48.919Z,8.50
2019-05-10T21:33:50.130Z,8.20
2019-05-10T21:38:47.191Z,5.93
2019-05-10T21:43:44.632Z,6.70
2019-05-10T21:48:41.843Z,8.17
2019-05-10T21:53:38.880Z,7.93
2019-05-10T21:58:36.047Z,15.37
2019-05-10T22:03:33.191Z,15.60
2019-05-10T22:08:30.300Z,18.40
2019-05-10T22:13:29.255Z,11.10
2019-05-10T22:18:26.359Z,8.53
2019-05-10T22:23:25.851Z,10.50
2019-05-10T22:28:23.045Z,8.60
2019-05-10T22:33:20.062Z,8.53
2019-05-10T22:38:17.118Z,12.23
2019-05-10T22:43:14.192Z,11.37
2019-05-10T22:48:13.742Z,9.27
2019-05-10T22:53:10.765Z,8.83
2019-05-10T22:58:08.265Z,6.60
2019-05-10T23:03:05.351Z,7.60
2019-05-10T23:08:02.377Z,6.37
2019-05-10T23:12:59.478Z,6.43
2019-05-10T23:17:56.697Z,5.47
2019-05-10T23:22:53.779Z,5.43
2019-05-10T23:27:50.878Z,4.73
2019-05-10T23:32:47.957Z,4.17
2019-05-10T23:37:46.866Z,4.37
2019-05-10T23:42:44.793Z,5.10
2019-05-10T23:47:41.852Z,4.93
2019-05-10T23:52:39.020Z,4.97
2019-05-10T23:57:36.593Z,5.07
